Time;durP1;ratioP1;P1;durP2;ratioP2;P2;SDS_P1;SDS_P2;PMS_P1;PMS_P2;Temp;Humidity;BMP_temperature;BMP_pressure;BME280_temperature;BME280_humidity;BME280_pressure;Samples;Min_cycle;Max_cycle;Signal;HPM_P1;HPM_P2
2022/08/08 19:07:53;;;;;;;3.78;1.40;;;;;;;;;;5038326;27;76385;-71
2022/08/08 19:10:18;;;;;;;2.03;1.45;;;;;;;;;;5016763;28;20041;-64
2022/08/08 19:12:44;;;;;;;6.35;1.67;;;;;;;;;;5017298;28;20026;-70
2022/08/08 19:15:09;;;;;;;2.25;1.20;;;;;;;;;;5015618;28;20069;-65
2022/08/08 19:17:35;;;;;;;1.45;1.10;;;;;;;;;;5024445;28;20030;-68
2022/08/08 19:20:01;;;;;;;2.30;1.13;;;;;;;;;;5021107;28;20041;-60
2022/08/08 19:22:26;;;;;;;1.60;1.13;;;;;;;;;;5020341;28;20014;-68
2022/08/08 19:24:51;;;;;;;3.35;1.25;;;;;;;;;;5018417;28;20345;-74
2022/08/08 19:27:17;;;;;;;5.53;1.33;;;;;;;;;;5019370;28;20167;-57
2022/08/08 19:29:43;;;;;;;2.03;1.23;;;;;;;;;;5018404;28;20022;-57
2022/08/08 19:32:08;;;;;;;1.98;1.30;;;;;;;;;;5026022;28;20357;-63
2022/08/08 19:34:33;;;;;;;6.55;1.27;;;;;;;;;;5020145;28;20042;-69
2022/08/08 19:36:59;;;;;;;2.67;1.30;;;;;;;;;;5017969;28;20022;-67
2022/08/08 19:39:24;;;;;;;3.57;1.53;;;;;;;;;;5021036;28;20518;-69
2022/08/08 19:41:50;;;;;;;7.75;1.90;;;;;;;;;;5021617;28;20732;-61
2022/08/08 19:44:15;;;;;;;6.57;3.78;;;;;;;;;;5021060;28;20474;-63
2022/08/08 19:46:41;;;;;;;4.63;2.33;;;;;;;;;;5022070;28;20112;-59
2022/08/08 19:49:06;;;;;;;4.60;1.95;;;;;;;;;;5021217;28;20269;-62
2022/08/08 19:51:32;;;;;;;5.73;1.93;;;;;;;;;;5017894;28;20037;-66
2022/08/08 19:53:59;;;;;;;3.03;1.88;;;;;;;;;;5019132;28;20755;-59
2022/08/08 19:56:26;;;;;;;2.50;1.58;;;;;;;;;;5020038;28;20068;-60
2022/08/08 19:58:51;;;;;;;1.95;1.83;;;;;;;;;;5021892;28;20086;-60
2022/08/08 20:01:19;;;;;;;4.75;2.10;;;;;;;;;;5026019;28;20049;-63
2022/08/08 20:03:44;;;;;;;1.75;1.40;;;;;;;;;;5027253;28;20018;-60
2022/08/08 20:06:12;;;;;;;2.08;1.73;;;;;;;;;;5021651;28;20116;-59
2022/08/08 20:08:41;;;;;;;4.53;1.90;;;;;;;;;;5017224;28;20123;-61
2022/08/08 20:11:07;;;;;;;5.20;1.80;;;;;;;;;;5013938;28;20444;-61
2022/08/08 20:13:32;;;;;;;2.97;1.95;;;;;;;;;;5021607;28;20060;-59
2022/08/08 20:16:00;;;;;;;3.83;2.17;;;;;;;;;;5020027;28;20129;-59
2022/08/08 20:18:25;;;;;;;4.28;1.85;;;;;;;;;;5008648;28;20092;-58
2022/08/08 20:20:50;;;;;;;5.32;1.75;;;;;;;;;;5001502;28;20037;-57
2022/08/08 20:23:16;;;;;;;3.45;1.88;;;;;;;;;;5000439;28;20018;-58
2022/08/08 20:25:42;;;;;;;4.03;2.20;;;;;;;;;;5005458;28;20030;-62
2022/08/08 20:28:07;;;;;;;2.78;1.95;;;;;;;;;;5001896;28;20021;-60
2022/08/08 20:30:33;;;;;;;5.18;1.73;;;;;;;;;;5002539;28;20054;-63
2022/08/08 20:32:58;;;;;;;4.05;2.35;;;;;;;;;;5007342;28;20113;-62
2022/08/08 20:35:23;;;;;;;2.50;1.70;;;;;;;;;;5003107;28;20018;-62
2022/08/08 20:37:49;;;;;;;3.53;1.83;;;;;;;;;;5007065;28;20026;-63
2022/08/08 20:40:14;;;;;;;2.45;1.60;;;;;;;;;;5002851;28;20879;-60
2022/08/08 20:42:39;;;;;;;3.20;1.70;;;;;;;;;;5000734;28;20121;-61
2022/08/08 20:45:08;;;;;;;2.83;1.57;;;;;;;;;;4999704;28;20588;-60
2022/08/08 20:47:33;;;;;;;1.95;1.83;;;;;;;;;;4999063;28;20288;-59
2022/08/08 20:49:59;;;;;;;2.85;1.60;;;;;;;;;;4999187;28;20029;-59
2022/08/08 20:52:26;;;;;;;5.05;1.67;;;;;;;;;;4998414;28;20048;-60
2022/08/08 20:54:54;;;;;;;1.77;1.40;;;;;;;;;;4998345;28;20026;-60
2022/08/08 20:57:22;;;;;;;1.55;1.45;;;;;;;;;;4999252;28;20065;-61
2022/08/08 20:59:47;;;;;;;2.70;1.70;;;;;;;;;;4997417;28;20125;-59
2022/08/08 21:02:13;;;;;;;2.85;1.55;;;;;;;;;;5001471;28;20506;-60
2022/08/08 21:04:39;;;;;;;2.58;1.45;;;;;;;;;;5006436;28;20025;-55
2022/08/08 21:07:06;;;;;;;2.00;1.45;;;;;;;;;;5002023;28;20447;-60
2022/08/08 21:09:32;;;;;;;5.13;1.77;;;;;;;;;;5003694;28;20017;-61
2022/08/08 21:11:58;;;;;;;1.70;1.50;;;;;;;;;;4998048;28;20075;-58
2022/08/08 21:14:23;;;;;;;3.65;1.77;;;;;;;;;;5002803;28;20716;-59
2022/08/08 21:16:49;;;;;;;3.20;1.27;;;;;;;;;;5000223;28;20029;-59
2022/08/08 21:19:16;;;;;;;3.00;1.40;;;;;;;;;;4999764;28;20265;-60
2022/08/08 21:21:41;;;;;;;2.67;1.58;;;;;;;;;;5004131;28;20277;-58
2022/08/08 21:24:07;;;;;;;1.48;1.30;;;;;;;;;;5003194;28;20021;-59
2022/08/08 21:26:32;;;;;;;3.92;1.73;;;;;;;;;;5004949;28;20079;-61
2022/08/08 21:28:57;;;;;;;1.70;1.60;;;;;;;;;;5002857;28;20014;-60
2022/08/08 21:31:23;;;;;;;1.77;1.60;;;;;;;;;;5000972;28;20261;-61
2022/08/08 21:33:48;;;;;;;1.48;1.33;;;;;;;;;;5002493;28;20037;-60
2022/08/08 21:36:14;;;;;;;6.60;1.80;;;;;;;;;;5002811;28;20505;-60
2022/08/08 21:38:42;;;;;;;2.78;1.50;;;;;;;;;;4998389;28;20021;-60
2022/08/08 21:41:10;;;;;;;1.63;1.40;;;;;;;;;;4998487;28;20022;-60
2022/08/08 21:43:35;;;;;;;1.90;1.33;;;;;;;;;;5002237;28;20026;-58
2022/08/08 21:46:07;;;;;;;2.35;1.65;;;;;;;;;;5000148;28;20549;-60
2022/08/08 21:48:33;;;;;;;2.30;1.65;;;;;;;;;;4998446;28;20030;-61
2022/08/08 21:51:02;;;;;;;4.07;1.83;;;;;;;;;;5001071;28;20025;-59
2022/08/08 21:53:27;;;;;;;1.38;1.20;;;;;;;;;;4999838;28;20324;-60
2022/08/08 21:55:53;;;;;;;4.73;1.23;;;;;;;;;;4995796;28;20018;-60
2022/08/08 21:58:24;;;;;;;1.38;1.25;;;;;;;;;;4999879;28;20575;-61
2022/08/08 22:00:49;;;;;;;1.80;1.63;;;;;;;;;;5002298;28;20446;-60
2022/08/08 22:03:15;;;;;;;5.75;2.20;;;;;;;;;;5002525;28;20030;-58
2022/08/08 22:05:42;;;;;;;1.70;1.60;;;;;;;;;;4998665;28;20105;-58
2022/08/08 22:08:08;;;;;;;2.70;1.70;;;;;;;;;;4997676;28;20033;-59
2022/08/08 22:10:35;;;;;;;2.30;1.45;;;;;;;;;;4997947;28;20032;-59
2022/08/08 22:13:04;;;;;;;1.40;1.30;;;;;;;;;;4997727;28;20050;-60
2022/08/08 22:15:29;;;;;;;1.50;1.40;;;;;;;;;;5000419;28;20041;-60
2022/08/08 22:17:54;;;;;;;1.38;1.30;;;;;;;;;;5000165;28;21374;-60
2022/08/08 22:20:20;;;;;;;3.07;1.57;;;;;;;;;;5000498;28;20108;-61
2022/08/08 22:22:45;;;;;;;1.63;1.52;;;;;;;;;;5000157;28;20065;-57
2022/08/08 22:25:12;;;;;;;1.73;1.60;;;;;;;;;;5000340;28;20379;-57
2022/08/08 22:27:40;;;;;;;1.63;1.52;;;;;;;;;;4995302;28;20749;-61
2022/08/08 22:30:06;;;;;;;1.60;1.50;;;;;;;;;;4996953;28;20128;-62
2022/08/08 22:32:31;;;;;;;1.60;1.50;;;;;;;;;;4999618;28;20042;-60
2022/08/08 22:34:57;;;;;;;1.50;1.40;;;;;;;;;;4999648;28;20022;-59
2022/08/08 22:37:23;;;;;;;1.60;1.50;;;;;;;;;;4999642;28;20013;-60
2022/08/08 22:39:50;;;;;;;1.70;1.05;;;;;;;;;;4997484;28;20277;-58
2022/08/08 22:42:15;;;;;;;2.38;1.65;;;;;;;;;;4995099;28;20119;-60
2022/08/08 22:44:40;;;;;;;1.45;1.20;;;;;;;;;;4998377;28;20555;-58
2022/08/08 22:47:05;;;;;;;1.47;1.10;;;;;;;;;;5001449;28;20026;-60
2022/08/08 22:49:31;;;;;;;1.20;1.10;;;;;;;;;;4999480;28;20361;-55
2022/08/08 22:51:56;;;;;;;1.48;1.38;;;;;;;;;;4997789;28;20046;-58
2022/08/08 22:54:22;;;;;;;2.53;1.48;;;;;;;;;;4999974;28;20021;-60
2022/08/08 22:56:47;;;;;;;2.92;1.60;;;;;;;;;;4999723;28;20113;-60
2022/08/08 22:59:12;;;;;;;1.33;1.00;;;;;;;;;;4999987;28;20049;-60
2022/08/08 23:01:37;;;;;;;2.08;1.27;;;;;;;;;;5002937;28;20265;-59
2022/08/08 23:04:03;;;;;;;1.63;1.07;;;;;;;;;;4999347;28;20110;-61
2022/08/08 23:06:28;;;;;;;1.60;1.33;;;;;;;;;;5000652;28;20347;-59
2022/08/08 23:08:54;;;;;;;1.97;1.40;;;;;;;;;;5004341;28;20130;-54
2022/08/08 23:11:19;;;;;;;2.00;1.30;;;;;;;;;;4999719;28;20257;-59
2022/08/08 23:13:44;;;;;;;1.40;1.30;;;;;;;;;;5001200;28;20026;-61
2022/08/08 23:16:09;;;;;;;5.13;1.60;;;;;;;;;;4999340;28;20057;-61
2022/08/08 23:18:35;;;;;;;1.60;1.20;;;;;;;;;;5006025;28;20823;-59
2022/08/08 23:21:03;;;;;;;1.50;1.10;;;;;;;;;;5008130;28;20119;-61
2022/08/08 23:23:29;;;;;;;2.47;1.48;;;;;;;;;;5003335;28;20355;-60
2022/08/08 23:25:57;;;;;;;2.78;1.63;;;;;;;;;;5001582;28;20350;-61
2022/08/08 23:28:22;;;;;;;1.58;1.00;;;;;;;;;;5002261;28;20031;-60
2022/08/08 23:30:47;;;;;;;1.88;1.38;;;;;;;;;;5004534;28;20037;-60
2022/08/08 23:33:14;;;;;;;1.57;1.13;;;;;;;;;;4997935;28;20014;-61
2022/08/08 23:35:39;;;;;;;1.67;1.35;;;;;;;;;;5000825;28;20010;-60
2022/08/08 23:38:06;;;;;;;2.55;1.33;;;;;;;;;;4999957;28;20213;-61
2022/08/08 23:40:31;;;;;;;1.58;1.20;;;;;;;;;;4996584;28;20811;-60
2022/08/08 23:42:57;;;;;;;1.37;1.27;;;;;;;;;;4999781;28;20022;-60
2022/08/08 23:45:22;;;;;;;1.63;1.30;;;;;;;;;;5001097;28;20713;-59
2022/08/08 23:47:50;;;;;;;2.13;1.40;;;;;;;;;;5000974;28;20281;-57
2022/08/08 23:50:17;;;;;;;1.98;1.60;;;;;;;;;;4997192;28;20926;-60
2022/08/08 23:52:45;;;;;;;1.88;1.50;;;;;;;;;;4998565;28;20030;-60
2022/08/08 23:55:11;;;;;;;1.48;1.40;;;;;;;;;;5000323;28;20503;-60
2022/08/08 23:57:37;;;;;;;1.65;1.35;;;;;;;;;;5000584;28;20038;-60
